sensor_id;sensor_type;location;lat;lon;timestamp;P1;durP1;ratioP1;P2;durP2;ratioP2
16462;SDS011;8342;42.736;23.292;2022-07-06T00:02:10;15.37;;;13.10;;
16462;SDS011;8342;42.736;23.292;2022-07-06T00:04:38;17.33;;;14.53;;
16462;SDS011;8342;42.736;23.292;2022-07-06T00:07:05;21.53;;;13.20;;
16462;SDS011;8342;42.736;23.292;2022-07-06T00:09:32;20.57;;;13.03;;
16462;SDS011;8342;42.736;23.292;2022-07-06T00:11:59;16.00;;;13.03;;
16462;SDS011;8342;42.736;23.292;2022-07-06T00:14:26;20.60;;;13.20;;
16462;SDS011;8342;42.736;23.292;2022-07-06T00:16:53;16.50;;;13.27;;
16462;SDS011;8342;42.736;23.292;2022-07-06T00:19:20;15.00;;;12.23;;
16462;SDS011;8342;42.736;23.292;2022-07-06T00:21:48;16.37;;;12.60;;
16462;SDS011;8342;42.736;23.292;2022-07-06T00:24:15;15.17;;;11.93;;
16462;SDS011;8342;42.736;23.292;2022-07-06T00:26:43;15.20;;;12.30;;
16462;SDS011;8342;42.736;23.292;2022-07-06T00:29:10;15.70;;;12.00;;
16462;SDS011;8342;42.736;23.292;2022-07-06T00:31:37;17.03;;;11.90;;
16462;SDS011;8342;42.736;23.292;2022-07-06T00:34:03;15.70;;;12.27;;
16462;SDS011;8342;42.736;23.292;2022-07-06T00:36:30;14.23;;;11.97;;
16462;SDS011;8342;42.736;23.292;2022-07-06T00:38:58;15.07;;;12.13;;
16462;SDS011;8342;42.736;23.292;2022-07-06T00:41:25;15.87;;;11.50;;
16462;SDS011;8342;42.736;23.292;2022-07-06T00:43:53;14.30;;;11.70;;
16462;SDS011;8342;42.736;23.292;2022-07-06T00:46:22;19.00;;;11.83;;
16462;SDS011;8342;42.736;23.292;2022-07-06T00:48:52;16.13;;;11.33;;
16462;SDS011;8342;42.736;23.292;2022-07-06T00:51:19;17.17;;;11.77;;
16462;SDS011;8342;42.736;23.292;2022-07-06T00:53:49;14.47;;;10.77;;
16462;SDS011;8342;42.736;23.292;2022-07-06T00:56:17;12.03;;;9.77;;
16462;SDS011;8342;42.736;23.292;2022-07-06T00:58:44;16.73;;;10.87;;
16462;SDS011;8342;42.736;23.292;2022-07-06T01:01:11;14.53;;;10.80;;
16462;SDS011;8342;42.736;23.292;2022-07-06T01:03:38;14.13;;;11.60;;
16462;SDS011;8342;42.736;23.292;2022-07-06T01:06:05;13.83;;;11.67;;
16462;SDS011;8342;42.736;23.292;2022-07-06T01:08:32;14.30;;;11.60;;
16462;SDS011;8342;42.736;23.292;2022-07-06T01:10:59;14.80;;;11.63;;
16462;SDS011;8342;42.736;23.292;2022-07-06T01:13:28;16.73;;;11.87;;
16462;SDS011;8342;42.736;23.292;2022-07-06T01:15:57;14.57;;;11.40;;
16462;SDS011;8342;42.736;23.292;2022-07-06T01:18:24;14.87;;;12.03;;
16462;SDS011;8342;42.736;23.292;2022-07-06T01:21:03;15.17;;;11.53;;
16462;SDS011;8342;42.736;23.292;2022-07-06T01:23:32;17.37;;;12.10;;
16462;SDS011;8342;42.736;23.292;2022-07-06T01:25:59;14.67;;;11.87;;
16462;SDS011;8342;42.736;23.292;2022-07-06T01:28:26;15.97;;;11.63;;
16462;SDS011;8342;42.736;23.292;2022-07-06T01:30:52;13.33;;;11.00;;
16462;SDS011;8342;42.736;23.292;2022-07-06T01:33:19;19.90;;;11.67;;
16462;SDS011;8342;42.736;23.292;2022-07-06T01:35:46;16.80;;;11.63;;
16462;SDS011;8342;42.736;23.292;2022-07-06T01:38:15;14.67;;;11.40;;
16462;SDS011;8342;42.736;23.292;2022-07-06T01:40:42;13.73;;;11.83;;
16462;SDS011;8342;42.736;23.292;2022-07-06T01:43:08;18.73;;;11.30;;
16462;SDS011;8342;42.736;23.292;2022-07-06T01:45:35;12.80;;;10.97;;
16462;SDS011;8342;42.736;23.292;2022-07-06T01:48:04;13.60;;;11.50;;
16462;SDS011;8342;42.736;23.292;2022-07-06T01:50:32;13.03;;;11.30;;
16462;SDS011;8342;42.736;23.292;2022-07-06T01:52:59;13.97;;;10.00;;
16462;SDS011;8342;42.736;23.292;2022-07-06T01:55:27;17.43;;;11.03;;
16462;SDS011;8342;42.736;23.292;2022-07-06T01:57:54;14.37;;;11.03;;
16462;SDS011;8342;42.736;23.292;2022-07-06T02:00:21;13.80;;;10.97;;
16462;SDS011;8342;42.736;23.292;2022-07-06T02:02:48;12.33;;;11.03;;
16462;SDS011;8342;42.736;23.292;2022-07-06T02:05:15;15.30;;;10.83;;
16462;SDS011;8342;42.736;23.292;2022-07-06T02:07:42;13.30;;;9.97;;
16462;SDS011;8342;42.736;23.292;2022-07-06T02:10:08;13.73;;;11.17;;
16462;SDS011;8342;42.736;23.292;2022-07-06T02:12:37;12.10;;;10.70;;
16462;SDS011;8342;42.736;23.292;2022-07-06T02:15:04;13.50;;;11.03;;
16462;SDS011;8342;42.736;23.292;2022-07-06T02:17:31;12.70;;;10.37;;
16462;SDS011;8342;42.736;23.292;2022-07-06T02:19:58;12.00;;;10.10;;
16462;SDS011;8342;42.736;23.292;2022-07-06T02:22:25;11.53;;;9.27;;
16462;SDS011;8342;42.736;23.292;2022-07-06T02:24:52;14.87;;;10.30;;
16462;SDS011;8342;42.736;23.292;2022-07-06T02:27:18;12.77;;;9.93;;
16462;SDS011;8342;42.736;23.292;2022-07-06T02:29:47;14.17;;;10.80;;
16462;SDS011;8342;42.736;23.292;2022-07-06T02:32:13;14.37;;;11.37;;
16462;SDS011;8342;42.736;23.292;2022-07-06T02:34:40;12.47;;;10.53;;
16462;SDS011;8342;42.736;23.292;2022-07-06T02:37:07;11.67;;;10.10;;
16462;SDS011;8342;42.736;23.292;2022-07-06T02:39:34;12.33;;;11.00;;
16462;SDS011;8342;42.736;23.292;2022-07-06T02:42:01;13.73;;;9.60;;
16462;SDS011;8342;42.736;23.292;2022-07-06T02:44:28;11.90;;;10.53;;
16462;SDS011;8342;42.736;23.292;2022-07-06T02:46:56;10.57;;;9.17;;
16462;SDS011;8342;42.736;23.292;2022-07-06T02:49:23;11.17;;;9.63;;
16462;SDS011;8342;42.736;23.292;2022-07-06T02:51:50;11.77;;;9.43;;
16462;SDS011;8342;42.736;23.292;2022-07-06T02:54:17;11.83;;;9.87;;
16462;SDS011;8342;42.736;23.292;2022-07-06T02:56:44;13.63;;;11.30;;
16462;SDS011;8342;42.736;23.292;2022-07-06T02:59:16;15.73;;;14.03;;
16462;SDS011;8342;42.736;23.292;2022-07-06T03:01:43;19.13;;;14.33;;
16462;SDS011;8342;42.736;23.292;2022-07-06T03:04:11;16.93;;;13.33;;
16462;SDS011;8342;42.736;23.292;2022-07-06T03:06:38;18.73;;;13.83;;
16462;SDS011;8342;42.736;23.292;2022-07-06T03:09:05;14.60;;;11.77;;
16462;SDS011;8342;42.736;23.292;2022-07-06T03:11:31;11.97;;;10.60;;
16462;SDS011;8342;42.736;23.292;2022-07-06T03:14:01;16.27;;;11.03;;
16462;SDS011;8342;42.736;23.292;2022-07-06T03:16:28;11.90;;;9.57;;
16462;SDS011;8342;42.736;23.292;2022-07-06T03:18:55;10.93;;;9.00;;
16462;SDS011;8342;42.736;23.292;2022-07-06T03:21:23;14.30;;;8.87;;
16462;SDS011;8342;42.736;23.292;2022-07-06T03:23:50;11.40;;;9.00;;
16462;SDS011;8342;42.736;23.292;2022-07-06T03:26:17;10.97;;;9.37;;
16462;SDS011;8342;42.736;23.292;2022-07-06T03:28:44;11.63;;;8.43;;
16462;SDS011;8342;42.736;23.292;2022-07-06T03:31:11;10.17;;;8.53;;
16462;SDS011;8342;42.736;23.292;2022-07-06T03:33:37;11.60;;;9.60;;
16462;SDS011;8342;42.736;23.292;2022-07-06T03:36:04;12.93;;;9.50;;
16462;SDS011;8342;42.736;23.292;2022-07-06T03:38:33;10.50;;;9.40;;
16462;SDS011;8342;42.736;23.292;2022-07-06T03:41:00;10.40;;;9.00;;
16462;SDS011;8342;42.736;23.292;2022-07-06T03:43:27;13.43;;;9.60;;
16462;SDS011;8342;42.736;23.292;2022-07-06T03:45:54;12.10;;;9.60;;
16462;SDS011;8342;42.736;23.292;2022-07-06T03:48:21;10.53;;;8.90;;
16462;SDS011;8342;42.736;23.292;2022-07-06T03:50:48;10.30;;;9.03;;
16462;SDS011;8342;42.736;23.292;2022-07-06T03:53:15;11.07;;;8.87;;
16462;SDS011;8342;42.736;23.292;2022-07-06T03:55:43;10.97;;;9.43;;
16462;SDS011;8342;42.736;23.292;2022-07-06T03:58:31;11.20;;;9.97;;
16462;SDS011;8342;42.736;23.292;2022-07-06T04:00:58;10.80;;;9.07;;
16462;SDS011;8342;42.736;23.292;2022-07-06T04:03:25;10.47;;;8.43;;
16462;SDS011;8342;42.736;23.292;2022-07-06T04:05:52;15.30;;;8.33;;
16462;SDS011;8342;42.736;23.292;2022-07-06T04:08:19;11.83;;;8.60;;
16462;SDS011;8342;42.736;23.292;2022-07-06T04:10:47;13.37;;;9.47;;
16462;SDS011;8342;42.736;23.292;2022-07-06T04:13:14;10.97;;;9.50;;
16462;SDS011;8342;42.736;23.292;2022-07-06T04:15:41;12.27;;;8.67;;
16462;SDS011;8342;42.736;23.292;2022-07-06T04:18:08;9.57;;;8.17;;
16462;SDS011;8342;42.736;23.292;2022-07-06T04:20:34;13.90;;;9.80;;
16462;SDS011;8342;42.736;23.292;2022-07-06T04:23:01;13.20;;;9.70;;
16462;SDS011;8342;42.736;23.292;2022-07-06T04:25:28;12.77;;;7.93;;
16462;SDS011;8342;42.736;23.292;2022-07-06T04:27:57;11.77;;;7.77;;
16462;SDS011;8342;42.736;23.292;2022-07-06T04:30:24;8.83;;;7.70;;
16462;SDS011;8342;42.736;23.292;2022-07-06T04:32:50;9.77;;;7.50;;
16462;SDS011;8342;42.736;23.292;2022-07-06T04:35:17;10.83;;;7.77;;
16462;SDS011;8342;42.736;23.292;2022-07-06T04:37:45;10.83;;;7.87;;
16462;SDS011;8342;42.736;23.292;2022-07-06T04:40:12;10.13;;;8.23;;
16462;SDS011;8342;42.736;23.292;2022-07-06T04:42:39;9.37;;;8.37;;
16462;SDS011;8342;42.736;23.292;2022-07-06T04:45:08;12.47;;;9.07;;
16462;SDS011;8342;42.736;23.292;2022-07-06T04:47:36;14.20;;;10.23;;
16462;SDS011;8342;42.736;23.292;2022-07-06T04:50:04;17.80;;;10.40;;
16462;SDS011;8342;42.736;23.292;2022-07-06T04:52:31;14.83;;;9.97;;
16462;SDS011;8342;42.736;23.292;2022-07-06T04:54:58;12.60;;;9.57;;
16462;SDS011;8342;42.736;23.292;2022-07-06T04:57:25;12.00;;;10.13;;
16462;SDS011;8342;42.736;23.292;2022-07-06T04:59:54;14.97;;;10.83;;
16462;SDS011;8342;42.736;23.292;2022-07-06T05:02:23;14.97;;;10.87;;
16462;SDS011;8342;42.736;23.292;2022-07-06T05:04:50;11.13;;;9.77;;
16462;SDS011;8342;42.736;23.292;2022-07-06T05:07:17;15.13;;;11.60;;
16462;SDS011;8342;42.736;23.292;2022-07-06T05:09:43;13.83;;;10.70;;
16462;SDS011;8342;42.736;23.292;2022-07-06T05:12:10;12.70;;;10.47;;
16462;SDS011;8342;42.736;23.292;2022-07-06T05:14:37;18.40;;;12.23;;
16462;SDS011;8342;42.736;23.292;2022-07-06T05:17:04;13.70;;;11.07;;
16462;SDS011;8342;42.736;23.292;2022-07-06T05:19:32;13.63;;;10.37;;
16462;SDS011;8342;42.736;23.292;2022-07-06T05:21:59;14.97;;;12.00;;
16462;SDS011;8342;42.736;23.292;2022-07-06T05:24:26;20.30;;;11.23;;
16462;SDS011;8342;42.736;23.292;2022-07-06T05:26:53;16.20;;;10.93;;
16462;SDS011;8342;42.736;23.292;2022-07-06T05:29:20;15.33;;;10.90;;
16462;SDS011;8342;42.736;23.292;2022-07-06T05:31:47;13.13;;;10.67;;
16462;SDS011;8342;42.736;23.292;2022-07-06T05:34:14;16.33;;;11.20;;
16462;SDS011;8342;42.736;23.292;2022-07-06T05:36:42;14.37;;;11.43;;
16462;SDS011;8342;42.736;23.292;2022-07-06T05:39:09;13.73;;;10.73;;
16462;SDS011;8342;42.736;23.292;2022-07-06T05:41:36;14.13;;;11.47;;
16462;SDS011;8342;42.736;23.292;2022-07-06T05:44:03;17.03;;;11.27;;
16462;SDS011;8342;42.736;23.292;2022-07-06T05:46:30;14.10;;;10.80;;
16462;SDS011;8342;42.736;23.292;2022-07-06T05:48:57;14.03;;;11.13;;
16462;SDS011;8342;42.736;23.292;2022-07-06T05:51:42;14.40;;;11.67;;
16462;SDS011;8342;42.736;23.292;2022-07-06T05:54:09;15.93;;;12.10;;
16462;SDS011;8342;42.736;23.292;2022-07-06T05:56:36;11.43;;;9.87;;
16462;SDS011;8342;42.736;23.292;2022-07-06T05:59:03;14.93;;;10.63;;
16462;SDS011;8342;42.736;23.292;2022-07-06T06:01:30;16.70;;;10.53;;
16462;SDS011;8342;42.736;23.292;2022-07-06T06:03:56;16.53;;;9.97;;
16462;SDS011;8342;42.736;23.292;2022-07-06T06:06:24;16.83;;;10.77;;
16462;SDS011;8342;42.736;23.292;2022-07-06T06:08:53;11.90;;;10.03;;
16462;SDS011;8342;42.736;23.292;2022-07-06T06:11:20;20.27;;;11.33;;
16462;SDS011;8342;42.736;23.292;2022-07-06T06:13:47;13.40;;;10.73;;
16462;SDS011;8342;42.736;23.292;2022-07-06T06:16:14;13.63;;;10.67;;
16462;SDS011;8342;42.736;23.292;2022-07-06T06:18:41;12.57;;;10.63;;
16462;SDS011;8342;42.736;23.292;2022-07-06T06:21:08;14.00;;;10.60;;
16462;SDS011;8342;42.736;23.292;2022-07-06T06:23:36;14.87;;;10.60;;
16462;SDS011;8342;42.736;23.292;2022-07-06T06:26:04;14.20;;;11.37;;
16462;SDS011;8342;42.736;23.292;2022-07-06T06:28:31;14.07;;;10.33;;
16462;SDS011;8342;42.736;23.292;2022-07-06T06:30:58;14.60;;;11.63;;
16462;SDS011;8342;42.736;23.292;2022-07-06T06:33:25;12.77;;;10.73;;
16462;SDS011;8342;42.736;23.292;2022-07-06T06:35:52;12.33;;;9.57;;
16462;SDS011;8342;42.736;23.292;2022-07-06T06:38:20;11.53;;;9.70;;
16462;SDS011;8342;42.736;23.292;2022-07-06T06:40:51;15.03;;;9.63;;
16462;SDS011;8342;42.736;23.292;2022-07-06T06:43:20;13.00;;;9.60;;
16462;SDS011;8342;42.736;23.292;2022-07-06T06:45:47;12.87;;;10.97;;
16462;SDS011;8342;42.736;23.292;2022-07-06T06:48:13;12.67;;;10.13;;
16462;SDS011;8342;42.736;23.292;2022-07-06T06:50:42;12.80;;;9.33;;
16462;SDS011;8342;42.736;23.292;2022-07-06T06:53:09;10.90;;;9.63;;
16462;SDS011;8342;42.736;23.292;2022-07-06T06:55:36;9.90;;;8.90;;
16462;SDS011;8342;42.736;23.292;2022-07-06T06:58:03;11.03;;;9.37;;
16462;SDS011;8342;42.736;23.292;2022-07-06T07:00:31;16.50;;;10.37;;
16462;SDS011;8342;42.736;23.292;2022-07-06T07:02:58;11.67;;;10.47;;
16462;SDS011;8342;42.736;23.292;2022-07-06T07:05:25;12.20;;;9.50;;
16462;SDS011;8342;42.736;23.292;2022-07-06T07:07:52;13.57;;;10.30;;
16462;SDS011;8342;42.736;23.292;2022-07-06T07:10:19;13.13;;;10.70;;
16462;SDS011;8342;42.736;23.292;2022-07-06T07:12:47;12.30;;;10.13;;
16462;SDS011;8342;42.736;23.292;2022-07-06T07:15:14;12.63;;;10.47;;
16462;SDS011;8342;42.736;23.292;2022-07-06T07:17:43;14.30;;;10.83;;
16462;SDS011;8342;42.736;23.292;2022-07-06T07:20:11;13.30;;;10.90;;
16462;SDS011;8342;42.736;23.292;2022-07-06T07:22:39;14.47;;;10.47;;
16462;SDS011;8342;42.736;23.292;2022-07-06T07:25:09;11.83;;;10.60;;
16462;SDS011;8342;42.736;23.292;2022-07-06T07:27:36;18.67;;;11.53;;
16462;SDS011;8342;42.736;23.292;2022-07-06T07:30:03;13.97;;;10.53;;
16462;SDS011;8342;42.736;23.292;2022-07-06T07:32:31;12.27;;;10.93;;
16462;SDS011;8342;42.736;23.292;2022-07-06T07:34:59;14.70;;;11.23;;
16462;SDS011;8342;42.736;23.292;2022-07-06T07:37:26;14.57;;;11.83;;
16462;SDS011;8342;42.736;23.292;2022-07-06T07:39:53;13.17;;;11.77;;
16462;SDS011;8342;42.736;23.292;2022-07-06T07:42:20;15.10;;;12.00;;
16462;SDS011;8342;42.736;23.292;2022-07-06T07:44:47;17.20;;;11.93;;
16462;SDS011;8342;42.736;23.292;2022-07-06T07:47:13;13.33;;;11.27;;
16462;SDS011;8342;42.736;23.292;2022-07-06T07:49:40;14.57;;;12.17;;
16462;SDS011;8342;42.736;23.292;2022-07-06T07:52:09;18.73;;;12.57;;
16462;SDS011;8342;42.736;23.292;2022-07-06T07:54:36;14.30;;;11.23;;
16462;SDS011;8342;42.736;23.292;2022-07-06T07:57:03;17.50;;;11.77;;
16462;SDS011;8342;42.736;23.292;2022-07-06T07:59:30;13.73;;;12.20;;
16462;SDS011;8342;42.736;23.292;2022-07-06T08:01:57;13.27;;;11.60;;
16462;SDS011;8342;42.736;23.292;2022-07-06T08:04:24;13.90;;;12.47;;
16462;SDS011;8342;42.736;23.292;2022-07-06T08:06:51;15.60;;;12.57;;
16462;SDS011;8342;42.736;23.292;2022-07-06T08:09:19;15.97;;;11.90;;
16462;SDS011;8342;42.736;23.292;2022-07-06T08:11:46;15.67;;;12.00;;
16462;SDS011;8342;42.736;23.292;2022-07-06T08:14:14;11.83;;;10.47;;
16462;SDS011;8342;42.736;23.292;2022-07-06T08:16:42;13.53;;;9.67;;
16462;SDS011;8342;42.736;23.292;2022-07-06T08:19:09;11.40;;;10.13;;
16462;SDS011;8342;42.736;23.292;2022-07-06T08:21:39;12.27;;;10.67;;
16462;SDS011;8342;42.736;23.292;2022-07-06T08:24:06;10.50;;;9.50;;
16462;SDS011;8342;42.736;23.292;2022-07-06T08:26:35;11.07;;;9.83;;
16462;SDS011;8342;42.736;23.292;2022-07-06T08:29:02;11.67;;;10.33;;
16462;SDS011;8342;42.736;23.292;2022-07-06T08:31:29;13.00;;;10.33;;
16462;SDS011;8342;42.736;23.292;2022-07-06T08:33:56;11.70;;;9.63;;
16462;SDS011;8342;42.736;23.292;2022-07-06T08:36:24;12.20;;;9.83;;
16462;SDS011;8342;42.736;23.292;2022-07-06T08:38:51;11.83;;;10.50;;
16462;SDS011;8342;42.736;23.292;2022-07-06T08:41:18;11.10;;;9.97;;
16462;SDS011;8342;42.736;23.292;2022-07-06T08:43:49;11.80;;;10.47;;
16462;SDS011;8342;42.736;23.292;2022-07-06T08:46:16;13.47;;;11.10;;
16462;SDS011;8342;42.736;23.292;2022-07-06T08:48:45;13.27;;;11.40;;
16462;SDS011;8342;42.736;23.292;2022-07-06T08:51:12;13.37;;;10.97;;
16462;SDS011;8342;42.736;23.292;2022-07-06T08:53:40;11.20;;;9.90;;
16462;SDS011;8342;42.736;23.292;2022-07-06T08:56:08;11.57;;;9.47;;
16462;SDS011;8342;42.736;23.292;2022-07-06T08:58:35;14.07;;;10.93;;
16462;SDS011;8342;42.736;23.292;2022-07-06T09:01:07;12.53;;;11.33;;
16462;SDS011;8342;42.736;23.292;2022-07-06T09:03:35;14.73;;;11.83;;
16462;SDS011;8342;42.736;23.292;2022-07-06T09:06:03;13.87;;;11.77;;
16462;SDS011;8342;42.736;23.292;2022-07-06T09:08:30;13.10;;;10.93;;
16462;SDS011;8342;42.736;23.292;2022-07-06T09:10:58;20.23;;;12.27;;
16462;SDS011;8342;42.736;23.292;2022-07-06T09:13:25;14.90;;;11.63;;
16462;SDS011;8342;42.736;23.292;2022-07-06T09:15:51;12.60;;;11.30;;
16462;SDS011;8342;42.736;23.292;2022-07-06T09:18:22;13.23;;;11.80;;
16462;SDS011;8342;42.736;23.292;2022-07-06T09:20:48;13.00;;;11.60;;
16462;SDS011;8342;42.736;23.292;2022-07-06T09:23:16;14.03;;;11.03;;
16462;SDS011;8342;42.736;23.292;2022-07-06T09:25:43;11.23;;;10.13;;
16462;SDS011;8342;42.736;23.292;2022-07-06T09:28:14;11.40;;;10.20;;
16462;SDS011;8342;42.736;23.292;2022-07-06T09:30:41;12.07;;;10.60;;
16462;SDS011;8342;42.736;23.292;2022-07-06T09:33:09;14.30;;;12.30;;
16462;SDS011;8342;42.736;23.292;2022-07-06T09:35:39;15.87;;;12.67;;
16462;SDS011;8342;42.736;23.292;2022-07-06T09:38:07;14.73;;;12.77;;
16462;SDS011;8342;42.736;23.292;2022-07-06T09:40:37;16.50;;;13.60;;
16462;SDS011;8342;42.736;23.292;2022-07-06T09:43:08;16.03;;;13.80;;
16462;SDS011;8342;42.736;23.292;2022-07-06T09:45:36;17.50;;;14.17;;
16462;SDS011;8342;42.736;23.292;2022-07-06T09:48:08;13.67;;;12.27;;
16462;SDS011;8342;42.736;23.292;2022-07-06T09:50:41;15.00;;;13.23;;
16462;SDS011;8342;42.736;23.292;2022-07-06T09:53:08;15.73;;;14.10;;
16462;SDS011;8342;42.736;23.292;2022-07-06T09:55:35;17.80;;;14.60;;
16462;SDS011;8342;42.736;23.292;2022-07-06T09:58:02;17.47;;;14.80;;
16462;SDS011;8342;42.736;23.292;2022-07-06T10:00:29;15.90;;;13.67;;
16462;SDS011;8342;42.736;23.292;2022-07-06T10:02:56;17.87;;;13.43;;
16462;SDS011;8342;42.736;23.292;2022-07-06T10:05:23;14.50;;;13.03;;
16462;SDS011;8342;42.736;23.292;2022-07-06T10:07:57;15.90;;;13.10;;
16462;SDS011;8342;42.736;23.292;2022-07-06T10:10:25;16.57;;;14.43;;
16462;SDS011;8342;42.736;23.292;2022-07-06T10:12:54;15.70;;;13.20;;
16462;SDS011;8342;42.736;23.292;2022-07-06T10:15:22;16.97;;;13.97;;
16462;SDS011;8342;42.736;23.292;2022-07-06T10:17:49;16.63;;;14.93;;
16462;SDS011;8342;42.736;23.292;2022-07-06T10:20:17;17.93;;;15.47;;
16462;SDS011;8342;42.736;23.292;2022-07-06T10:22:45;16.40;;;14.63;;
16462;SDS011;8342;42.736;23.292;2022-07-06T10:25:13;16.27;;;14.43;;
16462;SDS011;8342;42.736;23.292;2022-07-06T10:27:41;14.90;;;13.27;;
16462;SDS011;8342;42.736;23.292;2022-07-06T10:30:09;14.57;;;12.10;;
16462;SDS011;8342;42.736;23.292;2022-07-06T10:32:37;15.17;;;11.53;;
16462;SDS011;8342;42.736;23.292;2022-07-06T10:35:05;14.93;;;13.33;;
16462;SDS011;8342;42.736;23.292;2022-07-06T10:37:33;15.03;;;12.50;;
16462;SDS011;8342;42.736;23.292;2022-07-06T10:40:00;19.43;;;14.33;;
16462;SDS011;8342;42.736;23.292;2022-07-06T10:42:46;15.03;;;13.40;;
16462;SDS011;8342;42.736;23.292;2022-07-06T10:45:19;17.23;;;13.90;;
16462;SDS011;8342;42.736;23.292;2022-07-06T10:47:59;16.20;;;14.03;;
16462;SDS011;8342;42.736;23.292;2022-07-06T10:50:46;19.53;;;15.43;;
16462;SDS011;8342;42.736;23.292;2022-07-06T10:53:14;16.10;;;14.40;;
16462;SDS011;8342;42.736;23.292;2022-07-06T10:55:43;16.10;;;14.40;;
16462;SDS011;8342;42.736;23.292;2022-07-06T10:58:12;19.20;;;14.63;;
16462;SDS011;8342;42.736;23.292;2022-07-06T11:00:50;16.83;;;13.97;;
16462;SDS011;8342;42.736;23.292;2022-07-06T11:03:29;17.37;;;15.53;;
16462;SDS011;8342;42.736;23.292;2022-07-06T11:05:57;17.07;;;15.37;;
16462;SDS011;8342;42.736;23.292;2022-07-06T11:11:17;16.97;;;14.10;;
16462;SDS011;8342;42.736;23.292;2022-07-06T11:13:53;17.23;;;15.10;;
16462;SDS011;8342;42.736;23.292;2022-07-06T11:16:22;16.00;;;14.30;;
16462;SDS011;8342;42.736;23.292;2022-07-06T11:18:58;15.97;;;14.27;;
16462;SDS011;8342;42.736;23.292;2022-07-06T11:21:34;19.33;;;15.20;;
16462;SDS011;8342;42.736;23.292;2022-07-06T11:24:03;16.43;;;14.73;;
16462;SDS011;8342;42.736;23.292;2022-07-06T11:26:31;16.33;;;14.60;;
16462;SDS011;8342;42.736;23.292;2022-07-06T11:29:02;19.07;;;15.33;;
16462;SDS011;8342;42.736;23.292;2022-07-06T11:31:30;18.67;;;14.80;;
16462;SDS011;8342;42.736;23.292;2022-07-06T11:33:57;15.77;;;14.00;;
16462;SDS011;8342;42.736;23.292;2022-07-06T11:36:23;17.00;;;14.37;;
16462;SDS011;8342;42.736;23.292;2022-07-06T11:38:50;14.67;;;13.20;;
16462;SDS011;8342;42.736;23.292;2022-07-06T11:41:17;18.20;;;13.27;;
16462;SDS011;8342;42.736;23.292;2022-07-06T11:43:46;16.17;;;13.77;;
16462;SDS011;8342;42.736;23.292;2022-07-06T11:46:23;16.03;;;14.33;;
16462;SDS011;8342;42.736;23.292;2022-07-06T11:48:52;15.93;;;14.33;;
16462;SDS011;8342;42.736;23.292;2022-07-06T11:51:20;12.63;;;11.33;;
16462;SDS011;8342;42.736;23.292;2022-07-06T11:53:48;15.60;;;13.03;;
16462;SDS011;8342;42.736;23.292;2022-07-06T11:56:17;14.43;;;12.07;;
16462;SDS011;8342;42.736;23.292;2022-07-06T11:58:51;16.37;;;13.93;;
16462;SDS011;8342;42.736;23.292;2022-07-06T12:01:18;14.57;;;12.43;;
16462;SDS011;8342;42.736;23.292;2022-07-06T12:03:47;17.00;;;12.70;;
16462;SDS011;8342;42.736;23.292;2022-07-06T12:06:14;15.67;;;14.00;;
16462;SDS011;8342;42.736;23.292;2022-07-06T12:08:44;15.93;;;14.27;;
16462;SDS011;8342;42.736;23.292;2022-07-06T12:11:16;15.57;;;13.17;;
16462;SDS011;8342;42.736;23.292;2022-07-06T12:13:45;14.50;;;13.03;;
16462;SDS011;8342;42.736;23.292;2022-07-06T12:16:12;15.63;;;13.93;;
16462;SDS011;8342;42.736;23.292;2022-07-06T12:18:40;15.23;;;13.63;;
16462;SDS011;8342;42.736;23.292;2022-07-06T12:21:09;15.00;;;13.50;;
16462;SDS011;8342;42.736;23.292;2022-07-06T12:23:38;12.67;;;11.47;;
16462;SDS011;8342;42.736;23.292;2022-07-06T12:26:09;14.07;;;11.87;;
16462;SDS011;8342;42.736;23.292;2022-07-06T12:28:37;12.77;;;11.57;;
16462;SDS011;8342;42.736;23.292;2022-07-06T12:33:58;11.90;;;10.67;;
16462;SDS011;8342;42.736;23.292;2022-07-06T12:36:27;11.13;;;10.03;;
16462;SDS011;8342;42.736;23.292;2022-07-06T12:38:54;11.90;;;10.73;;
16462;SDS011;8342;42.736;23.292;2022-07-06T12:41:25;12.00;;;10.90;;
16462;SDS011;8342;42.736;23.292;2022-07-06T12:43:59;12.07;;;10.77;;
16462;SDS011;8342;42.736;23.292;2022-07-06T12:46:30;10.50;;;9.40;;
16462;SDS011;8342;42.736;23.292;2022-07-06T12:48:58;9.83;;;8.83;;
16462;SDS011;8342;42.736;23.292;2022-07-06T12:51:27;12.73;;;9.93;;
16462;SDS011;8342;42.736;23.292;2022-07-06T12:56:58;10.60;;;9.50;;
16462;SDS011;8342;42.736;23.292;2022-07-06T12:59:34;19.57;;;17.23;;
16462;SDS011;8342;42.736;23.292;2022-07-06T13:02:03;9.87;;;8.97;;
16462;SDS011;8342;42.736;23.292;2022-07-06T13:04:32;10.03;;;9.10;;
16462;SDS011;8342;42.736;23.292;2022-07-06T13:07:01;10.83;;;8.40;;
16462;SDS011;8342;42.736;23.292;2022-07-06T13:09:29;9.90;;;8.90;;
16462;SDS011;8342;42.736;23.292;2022-07-06T13:11:56;8.00;;;7.30;;
16462;SDS011;8342;42.736;23.292;2022-07-06T13:14:23;7.33;;;6.63;;
16462;SDS011;8342;42.736;23.292;2022-07-06T13:16:50;8.83;;;7.10;;
16462;SDS011;8342;42.736;23.292;2022-07-06T13:19:19;9.13;;;6.43;;
16462;SDS011;8342;42.736;23.292;2022-07-06T13:21:45;7.43;;;6.20;;
16462;SDS011;8342;42.736;23.292;2022-07-06T13:24:15;6.03;;;4.60;;
16462;SDS011;8342;42.736;23.292;2022-07-06T13:26:43;7.33;;;4.70;;
16462;SDS011;8342;42.736;23.292;2022-07-06T13:29:10;4.80;;;4.40;;
16462;SDS011;8342;42.736;23.292;2022-07-06T13:31:37;6.07;;;4.80;;
16462;SDS011;8342;42.736;23.292;2022-07-06T13:34:05;4.97;;;4.57;;
16462;SDS011;8342;42.736;23.292;2022-07-06T13:36:32;4.73;;;4.33;;
16462;SDS011;8342;42.736;23.292;2022-07-06T13:38:59;6.80;;;5.63;;
16462;SDS011;8342;42.736;23.292;2022-07-06T13:41:28;5.40;;;4.90;;
16462;SDS011;8342;42.736;23.292;2022-07-06T13:43:55;5.23;;;4.83;;
16462;SDS011;8342;42.736;23.292;2022-07-06T13:46:21;4.80;;;4.40;;
16462;SDS011;8342;42.736;23.292;2022-07-06T13:48:48;4.43;;;4.03;;
16462;SDS011;8342;42.736;23.292;2022-07-06T13:51:16;4.30;;;3.80;;
16462;SDS011;8342;42.736;23.292;2022-07-06T13:53:43;4.27;;;3.97;;
16462;SDS011;8342;42.736;23.292;2022-07-06T13:56:10;4.30;;;3.90;;
16462;SDS011;8342;42.736;23.292;2022-07-06T13:58:39;4.07;;;3.60;;
16462;SDS011;8342;42.736;23.292;2022-07-06T14:01:06;6.00;;;3.80;;
16462;SDS011;8342;42.736;23.292;2022-07-06T14:03:34;3.87;;;3.47;;
16462;SDS011;8342;42.736;23.292;2022-07-06T14:06:03;3.20;;;3.00;;
16462;SDS011;8342;42.736;23.292;2022-07-06T14:08:32;3.30;;;3.10;;
16462;SDS011;8342;42.736;23.292;2022-07-06T14:10:59;3.37;;;3.10;;
16462;SDS011;8342;42.736;23.292;2022-07-06T14:13:26;3.60;;;3.30;;
16462;SDS011;8342;42.736;23.292;2022-07-06T14:15:54;3.67;;;3.43;;
16462;SDS011;8342;42.736;23.292;2022-07-06T14:18:21;3.73;;;3.23;;
16462;SDS011;8342;42.736;23.292;2022-07-06T14:20:49;3.70;;;3.40;;
16462;SDS011;8342;42.736;23.292;2022-07-06T14:23:17;3.07;;;2.87;;
16462;SDS011;8342;42.736;23.292;2022-07-06T14:25:45;4.40;;;4.00;;
16462;SDS011;8342;42.736;23.292;2022-07-06T14:28:12;3.70;;;3.40;;
16462;SDS011;8342;42.736;23.292;2022-07-06T14:30:40;6.23;;;3.87;;
16462;SDS011;8342;42.736;23.292;2022-07-06T14:33:11;7.33;;;4.20;;
16462;SDS011;8342;42.736;23.292;2022-07-06T14:35:39;6.93;;;3.93;;
16462;SDS011;8342;42.736;23.292;2022-07-06T14:38:07;4.03;;;3.73;;
16462;SDS011;8342;42.736;23.292;2022-07-06T14:40:34;4.60;;;4.17;;
16462;SDS011;8342;42.736;23.292;2022-07-06T14:43:02;3.67;;;3.37;;